sensor_id;sensor_type;location;lat;lon;timestamp;pressure;altitude;pressure_sealevel;temperature;humidity
54918;BME280;40818;50.562;7.454;2023-02-18T00:08:23;98430.47;;;8.47;100.00
54918;BME280;40818;50.562;7.454;2023-02-18T00:18:26;98438.94;;;8.51;100.00
54918;BME280;40818;50.562;7.454;2023-02-18T00:28:33;98440.72;;;8.50;100.00
54918;BME280;40818;50.562;7.454;2023-02-18T00:38:37;98428.53;;;8.52;100.00
54918;BME280;40818;50.562;7.454;2023-02-18T00:48:44;98425.03;;;8.53;100.00
54918;BME280;40818;50.562;7.454;2023-02-18T00:58:47;98428.31;;;8.57;100.00
54918;BME280;40818;50.562;7.454;2023-02-18T01:08:54;98400.69;;;8.58;100.00
54918;BME280;40818;50.562;7.454;2023-02-18T01:18:57;98397.31;;;8.56;100.00
54918;BME280;40818;50.562;7.454;2023-02-18T01:29:03;98388.66;;;8.57;100.00
54918;BME280;40818;50.562;7.454;2023-02-18T01:39:07;98391.16;;;8.58;100.00
54918;BME280;40818;50.562;7.454;2023-02-18T01:49:16;98370.22;;;8.63;100.00
54918;BME280;40818;50.562;7.454;2023-02-18T01:59:24;98354.78;;;8.61;100.00
54918;BME280;40818;50.562;7.454;2023-02-18T02:09:31;98343.59;;;8.61;100.00
54918;BME280;40818;50.562;7.454;2023-02-18T02:20:14;98339.31;;;8.60;100.00
54918;BME280;40818;50.562;7.454;2023-02-18T02:41:07;98317.66;;;8.62;100.00
54918;BME280;40818;50.562;7.454;2023-02-18T02:51:17;98305.53;;;8.63;100.00
54918;BME280;40818;50.562;7.454;2023-02-18T03:01:35;98295.19;;;8.63;100.00
54918;BME280;40818;50.562;7.454;2023-02-18T03:11:43;98290.00;;;8.63;100.00
54918;BME280;40818;50.562;7.454;2023-02-18T03:21:56;98275.16;;;8.66;100.00
54918;BME280;40818;50.562;7.454;2023-02-18T03:32:04;98257.88;;;8.67;100.00
54918;BME280;40818;50.562;7.454;2023-02-18T03:42:11;98248.31;;;8.69;100.00
54918;BME280;40818;50.562;7.454;2023-02-18T03:52:15;98241.44;;;8.68;100.00
54918;BME280;40818;50.562;7.454;2023-02-18T04:02:21;98225.16;;;8.66;100.00
54918;BME280;40818;50.562;7.454;2023-02-18T04:12:25;98238.69;;;8.71;100.00
54918;BME280;40818;50.562;7.454;2023-02-18T04:22:31;98235.66;;;8.80;100.00
54918;BME280;40818;50.562;7.454;2023-02-18T04:32:34;98224.69;;;8.75;100.00
54918;BME280;40818;50.562;7.454;2023-02-18T04:42:40;98224.78;;;8.74;100.00
54918;BME280;40818;50.562;7.454;2023-02-18T04:52:44;98198.06;;;8.73;100.00
54918;BME280;40818;50.562;7.454;2023-02-18T05:02:50;98203.06;;;8.76;100.00
54918;BME280;40818;50.562;7.454;2023-02-18T05:12:53;98192.97;;;8.71;100.00
54918;BME280;40818;50.562;7.454;2023-02-18T05:22:59;98184.22;;;8.74;100.00
54918;BME280;40818;50.562;7.454;2023-02-18T05:33:03;98176.50;;;8.73;100.00
54918;BME280;40818;50.562;7.454;2023-02-18T05:43:09;98172.41;;;8.68;100.00
54918;BME280;40818;50.562;7.454;2023-02-18T05:53:13;98162.06;;;8.68;100.00
54918;BME280;40818;50.562;7.454;2023-02-18T06:03:19;98170.03;;;8.64;100.00
54918;BME280;40818;50.562;7.454;2023-02-18T06:13:22;98167.44;;;8.64;100.00
54918;BME280;40818;50.562;7.454;2023-02-18T06:23:28;98154.44;;;8.65;100.00
54918;BME280;40818;50.562;7.454;2023-02-18T06:33:32;98148.59;;;8.62;100.00
54918;BME280;40818;50.562;7.454;2023-02-18T06:43:38;98151.47;;;8.56;100.00
54918;BME280;40818;50.562;7.454;2023-02-18T06:53:42;98132.91;;;8.47;100.00
54918;BME280;40818;50.562;7.454;2023-02-18T07:03:48;98137.56;;;8.41;100.00
54918;BME280;40818;50.562;7.454;2023-02-18T07:13:51;98145.16;;;8.44;100.00
54918;BME280;40818;50.562;7.454;2023-02-18T07:23:57;98132.00;;;8.48;100.00
54918;BME280;40818;50.562;7.454;2023-02-18T07:34:01;98125.28;;;8.44;100.00
54918;BME280;40818;50.562;7.454;2023-02-18T07:44:07;98139.28;;;8.40;100.00
54918;BME280;40818;50.562;7.454;2023-02-18T07:54:10;98152.06;;;8.43;100.00
54918;BME280;40818;50.562;7.454;2023-02-18T08:04:17;98166.41;;;8.50;100.00
54918;BME280;40818;50.562;7.454;2023-02-18T08:14:20;98153.31;;;8.53;100.00
54918;BME280;40818;50.562;7.454;2023-02-18T08:24:26;98142.09;;;8.53;100.00
54918;BME280;40818;50.562;7.454;2023-02-18T08:34:30;98150.72;;;8.53;100.00
54918;BME280;40818;50.562;7.454;2023-02-18T08:44:36;98149.41;;;8.62;100.00
54918;BME280;40818;50.562;7.454;2023-02-18T08:54:39;98168.59;;;8.58;100.00
54918;BME280;40818;50.562;7.454;2023-02-18T09:04:48;98183.50;;;8.70;100.00
54918;BME280;40818;50.562;7.454;2023-02-18T09:14:51;98201.25;;;8.61;100.00
54918;BME280;40818;50.562;7.454;2023-02-18T09:24:57;98216.78;;;8.61;100.00
54918;BME280;40818;50.562;7.454;2023-02-18T09:35:01;98217.63;;;8.61;100.00
54918;BME280;40818;50.562;7.454;2023-02-18T09:45:10;98192.41;;;8.47;100.00
54918;BME280;40818;50.562;7.454;2023-02-18T09:55:19;98163.47;;;8.39;100.00
54918;BME280;40818;50.562;7.454;2023-02-18T10:05:27;98174.75;;;8.38;100.00
54918;BME280;40818;50.562;7.454;2023-02-18T10:15:32;98179.16;;;8.36;100.00
54918;BME280;40818;50.562;7.454;2023-02-18T10:25:42;98150.47;;;8.41;100.00
54918;BME280;40818;50.562;7.454;2023-02-18T10:35:52;98151.16;;;8.44;100.00
54918;BME280;40818;50.562;7.454;2023-02-18T10:46:04;98143.13;;;8.50;100.00
54918;BME280;40818;50.562;7.454;2023-02-18T10:56:31;98133.59;;;8.51;100.00
54918;BME280;40818;50.562;7.454;2023-02-18T11:06:41;98123.00;;;8.56;100.00
54918;BME280;40818;50.562;7.454;2023-02-18T11:16:46;98100.16;;;8.64;100.00
54918;BME280;40818;50.562;7.454;2023-02-18T11:26:55;98102.13;;;8.76;100.00
54918;BME280;40818;50.562;7.454;2023-02-18T11:37:08;98105.59;;;8.93;100.00
54918;BME280;40818;50.562;7.454;2023-02-18T11:47:24;98105.75;;;9.05;100.00
54918;BME280;40818;50.562;7.454;2023-02-18T11:57:28;98118.19;;;8.99;100.00
54918;BME280;40818;50.562;7.454;2023-02-18T12:07:41;98114.75;;;8.82;100.00
54918;BME280;40818;50.562;7.454;2023-02-18T12:17:59;98118.56;;;8.75;100.00
54918;BME280;40818;50.562;7.454;2023-02-18T12:28:23;98123.72;;;8.75;100.00
54918;BME280;40818;50.562;7.454;2023-02-18T12:38:52;98115.22;;;8.73;100.00
54918;BME280;40818;50.562;7.454;2023-02-18T12:49:26;98114.00;;;8.63;100.00
54918;BME280;40818;50.562;7.454;2023-02-18T13:10:43;98120.75;;;8.49;100.00
54918;BME280;40818;50.562;7.454;2023-02-18T13:20:55;98119.84;;;8.50;100.00
54918;BME280;40818;50.562;7.454;2023-02-18T13:31:21;98121.94;;;8.60;100.00
54918;BME280;40818;50.562;7.454;2023-02-18T13:41:28;98111.13;;;8.51;100.00
54918;BME280;40818;50.562;7.454;2023-02-18T13:51:41;98109.63;;;8.47;100.00
54918;BME280;40818;50.562;7.454;2023-02-18T14:01:49;98120.09;;;8.44;100.00
54918;BME280;40818;50.562;7.454;2023-02-18T14:11:57;98111.47;;;8.45;100.00
54918;BME280;40818;50.562;7.454;2023-02-18T14:22:30;98114.94;;;8.44;100.00
54918;BME280;40818;50.562;7.454;2023-02-18T14:32:38;98110.75;;;8.42;100.00
54918;BME280;40818;50.562;7.454;2023-02-18T14:42:47;98113.88;;;8.48;100.00
54918;BME280;40818;50.562;7.454;2023-02-18T14:52:56;98101.25;;;8.42;100.00
54918;BME280;40818;50.562;7.454;2023-02-18T15:03:01;98107.16;;;8.44;100.00
54918;BME280;40818;50.562;7.454;2023-02-18T15:13:10;98102.06;;;8.43;100.00
54918;BME280;40818;50.562;7.454;2023-02-18T15:23:17;98104.75;;;8.41;100.00
54918;BME280;40818;50.562;7.454;2023-02-18T15:33:24;98106.41;;;8.42;100.00
54918;BME280;40818;50.562;7.454;2023-02-18T15:43:27;98105.03;;;8.35;100.00
54918;BME280;40818;50.562;7.454;2023-02-18T15:53:36;98105.50;;;8.26;100.00
54918;BME280;40818;50.562;7.454;2023-02-18T16:03:44;98110.00;;;8.22;100.00
54918;BME280;40818;50.562;7.454;2023-02-18T16:13:51;98105.13;;;8.16;100.00
54918;BME280;40818;50.562;7.454;2023-02-18T16:23:57;98107.88;;;8.13;100.00
54918;BME280;40818;50.562;7.454;2023-02-18T16:34:03;98111.13;;;8.16;100.00
54918;BME280;40818;50.562;7.454;2023-02-18T16:44:11;98121.47;;;8.16;100.00
54918;BME280;40818;50.562;7.454;2023-02-18T16:54:18;98120.03;;;8.11;100.00
54918;BME280;40818;50.562;7.454;2023-02-18T17:04:21;98120.94;;;8.10;100.00
54918;BME280;40818;50.562;7.454;2023-02-18T17:14:27;98124.75;;;8.02;100.00
54918;BME280;40818;50.562;7.454;2023-02-18T17:24:30;98132.88;;;7.95;100.00
54918;BME280;40818;50.562;7.454;2023-02-18T17:34:36;98132.88;;;7.95;100.00
54918;BME280;40818;50.562;7.454;2023-02-18T17:44:40;98143.28;;;7.93;100.00
54918;BME280;40818;50.562;7.454;2023-02-18T17:54:46;98147.53;;;7.94;100.00
54918;BME280;40818;50.562;7.454;2023-02-18T18:04:50;98142.38;;;7.94;100.00
54918;BME280;40818;50.562;7.454;2023-02-18T18:14:56;98147.16;;;7.84;100.00
54918;BME280;40818;50.562;7.454;2023-02-18T18:25:01;98145.47;;;7.83;100.00
54918;BME280;40818;50.562;7.454;2023-02-18T18:35:17;98138.00;;;7.77;100.00
54918;BME280;40818;50.562;7.454;2023-02-18T18:45:23;98129.56;;;7.74;100.00
54918;BME280;40818;50.562;7.454;2023-02-18T18:55:35;98144.53;;;7.67;100.00
54918;BME280;40818;50.562;7.454;2023-02-18T19:05:41;98142.00;;;7.65;100.00
54918;BME280;40818;50.562;7.454;2023-02-18T19:15:48;98137.84;;;7.63;100.00
54918;BME280;40818;50.562;7.454;2023-02-18T19:25:52;98136.84;;;7.65;100.00
54918;BME280;40818;50.562;7.454;2023-02-18T19:35:58;98116.88;;;7.69;100.00
54918;BME280;40818;50.562;7.454;2023-02-18T19:46:06;98130.41;;;7.74;100.00
54918;BME280;40818;50.562;7.454;2023-02-18T19:56:13;98130.41;;;7.74;100.00
54918;BME280;40818;50.562;7.454;2023-02-18T20:06:18;98124.19;;;7.78;100.00
54918;BME280;40818;50.562;7.454;2023-02-18T20:16:24;98108.53;;;7.81;100.00
54918;BME280;40818;50.562;7.454;2023-02-18T20:26:27;98107.63;;;7.82;100.00
54918;BME280;40818;50.562;7.454;2023-02-18T20:36:34;98106.03;;;7.80;100.00
54918;BME280;40818;50.562;7.454;2023-02-18T20:46:38;98089.06;;;7.74;100.00
54918;BME280;40818;50.562;7.454;2023-02-18T20:56:45;98092.41;;;7.76;100.00
54918;BME280;40818;50.562;7.454;2023-02-18T21:06:49;98088.75;;;7.80;100.00
54918;BME280;40818;50.562;7.454;2023-02-18T21:16:55;98076.69;;;7.81;100.00
54918;BME280;40818;50.562;7.454;2023-02-18T21:26:58;98069.91;;;7.78;100.00
54918;BME280;40818;50.562;7.454;2023-02-18T21:37:04;98049.97;;;7.80;100.00
54918;BME280;40818;50.562;7.454;2023-02-18T21:47:08;98038.91;;;7.78;100.00
54918;BME280;40818;50.562;7.454;2023-02-18T21:57:16;98038.13;;;7.76;100.00
54918;BME280;40818;50.562;7.454;2023-02-18T22:07:23;98040.72;;;7.76;100.00
54918;BME280;40818;50.562;7.454;2023-02-18T22:17:29;98033.09;;;7.73;100.00
54918;BME280;40818;50.562;7.454;2023-02-18T22:27:32;98025.50;;;7.70;100.00
54918;BME280;40818;50.562;7.454;2023-02-18T22:37:38;98016.91;;;7.69;100.00
54918;BME280;40818;50.562;7.454;2023-02-18T22:47:42;98015.19;;;7.70;100.00
54918;BME280;40818;50.562;7.454;2023-02-18T22:57:48;98005.13;;;7.64;100.00
54918;BME280;40818;50.562;7.454;2023-02-18T23:07:51;98001.94;;;7.59;100.00
54918;BME280;40818;50.562;7.454;2023-02-18T23:17:58;97990.69;;;7.60;100.00
54918;BME280;40818;50.562;7.454;2023-02-18T23:28:02;97963.78;;;7.64;100.00
54918;BME280;40818;50.562;7.454;2023-02-18T23:38:08;97962.06;;;7.64;100.00
54918;BME280;40818;50.562;7.454;2023-02-18T23:48:11;97993.28;;;7.60;100.00
54918;BME280;40818;50.562;7.454;2023-02-18T23:58:19;97990.63;;;7.61;100.00
